Time,TemperatureF,DewpointF,PressureIn,WindDirection,WindDirectionDegrees,WindSpeedMPH,WindSpeedGustMPH,Humidity,HourlyPrecipIn,Conditions,Clouds,dailyrainin,SolarRadiationWatts/m^2,SoftwareType,DateUTC
2013-09-02 00:03:00,76.0,74.0,-100.00,SW,229,0.0,2.0,94,0.00,,,0.00,0.000000,,2013-09-02 05:03:00,
2013-09-02 00:44:00,76.0,74.0,-100.00,SSW,211,1.0,6.0,95,0.00,,,0.00,0.000000,,2013-09-02 05:44:00,
2013-09-02 00:52:00,76.0,74.0,-100.00,SSW,211,1.0,6.0,95,0.00,,,0.00,0.000000,,2013-09-02 05:52:00,
2013-09-02 01:03:00,76.0,74.0,-100.00,SSW,211,1.0,6.0,95,0.00,,,0.00,0.000000,,2013-09-02 06:03:00,
2013-09-02 01:43:00,77.0,75.0,-100.00,SW,220,3.0,5.0,94,0.00,,,0.00,0.000000,,2013-09-02 06:43:00,
2013-09-02 01:52:00,77.0,75.0,-100.00,SW,220,3.0,5.0,94,0.00,,,0.00,0.000000,,2013-09-02 06:52:00,
2013-09-02 02:01:00,77.0,75.0,-100.00,SW,220,3.0,5.0,94,0.00,,,0.00,0.000000,,2013-09-02 07:01:00,
2013-09-02 02:42:00,76.0,75.0,-100.00,SSW,211,1.0,6.0,96,0.00,,,0.00,0.000000,,2013-09-02 07:42:00,
2013-09-02 02:52:00,76.0,75.0,-100.00,SSW,211,1.0,6.0,96,0.00,,,0.00,0.000000,,2013-09-02 07:52:00,
2013-09-02 03:02:00,76.0,75.0,-100.00,SSW,211,1.0,6.0,96,0.00,,,0.00,0.000000,,2013-09-02 08:02:00,
2013-09-02 03:42:00,75.0,74.0,-100.00,SSW,203,1.0,5.0,97,0.00,,,0.00,0.000000,,2013-09-02 08:42:00,
2013-09-02 03:52:00,75.0,74.0,-100.00,SSW,203,1.0,5.0,97,0.00,,,0.00,0.000000,,2013-09-02 08:52:00,
2013-09-02 04:01:00,75.0,74.0,-100.00,SSW,203,1.0,5.0,97,0.00,,,0.00,0.000000,,2013-09-02 09:01:00,
2013-09-02 04:44:00,74.0,74.0,-100.00,SW,225,1.0,5.0,99,0.00,,,0.00,0.000000,,2013-09-02 09:44:00,
2013-09-02 04:53:00,74.0,74.0,-100.00,SW,225,1.0,5.0,99,0.00,,,0.00,0.000000,,2013-09-02 09:53:00,
2013-09-02 05:03:00,74.0,74.0,-100.00,SW,225,1.0,5.0,99,0.00,,,0.00,0.000000,,2013-09-02 10:03:00,
2013-09-02 05:42:00,75.0,74.0,-100.00,SW,215,2.0,8.0,97,0.00,,,0.00,0.000000,,2013-09-02 10:42:00,
2013-09-02 05:53:00,75.0,74.0,-100.00,SW,215,2.0,8.0,97,0.00,,,0.00,0.000000,,2013-09-02 10:53:00,
2013-09-02 06:03:00,75.0,74.0,-100.00,SW,215,2.0,8.0,97,0.00,,,0.00,0.000000,,2013-09-02 11:03:00,
2013-09-02 06:42:00,74.0,73.0,-100.00,WNW,282,0.0,6.0,98,0.00,,,0.00,0.000000,,2013-09-02 11:42:00,
2013-09-02 06:52:00,74.0,73.0,-100.00,WNW,282,0.0,6.0,98,0.00,,,0.00,0.000000,,2013-09-02 11:52:00,
2013-09-02 07:02:00,74.0,73.0,-100.00,WNW,282,0.0,6.0,98,0.00,,,0.00,0.000000,,2013-09-02 12:02:00,
2013-09-02 07:43:00,74.0,74.0,-100.00,SW,219,1.0,4.0,99,0.00,,,0.00,7.000000,,2013-09-02 12:43:00,
2013-09-02 07:52:00,74.0,74.0,-100.00,SW,219,1.0,4.0,99,0.00,,,0.00,7.000000,,2013-09-02 12:52:00,
2013-09-02 08:02:00,74.0,74.0,-100.00,SW,219,1.0,4.0,99,0.00,,,0.00,7.000000,,2013-09-02 13:02:00,
2013-09-02 08:42:00,79.0,75.0,-100.00,SW,233,3.0,8.0,87,0.00,,,0.00,114.000000,,2013-09-02 13:42:00,
2013-09-02 08:52:00,79.0,75.0,-100.00,SW,233,3.0,8.0,87,0.00,,,0.00,114.000000,,2013-09-02 13:52:00,
2013-09-02 09:02:00,79.0,75.0,-100.00,SW,233,3.0,8.0,87,0.00,,,0.00,114.000000,,2013-09-02 14:02:00,
2013-09-02 09:43:00,84.0,77.0,-100.00,West,276,3.0,7.0,79,0.00,,,0.00,266.000000,,2013-09-02 14:43:00,
2013-09-02 09:52:00,84.0,77.0,-100.00,West,276,3.0,7.0,79,0.00,,,0.00,266.000000,,2013-09-02 14:52:00,
2013-09-02 10:02:00,84.0,77.0,-100.00,West,276,3.0,7.0,79,0.00,,,0.00,266.000000,,2013-09-02 15:02:00,
2013-09-02 10:45:00,87.0,76.0,-100.00,WSW,241,3.0,8.0,69,0.00,,,0.00,435.000000,,2013-09-02 15:45:00,
2013-09-02 10:55:00,87.0,76.0,-100.00,WSW,241,3.0,8.0,69,0.00,,,0.00,435.000000,,2013-09-02 15:55:00,
2013-09-02 11:04:00,87.0,76.0,-100.00,WSW,241,3.0,8.0,69,0.00,,,0.00,435.000000,,2013-09-02 16:04:00,
2013-09-02 11:43:00,90.0,75.0,-100.00,WSW,245,2.0,8.0,62,0.00,,,0.00,573.000000,,2013-09-02 16:43:00,
2013-09-02 11:53:00,90.0,75.0,-100.00,WSW,245,2.0,8.0,62,0.00,,,0.00,573.000000,,2013-09-02 16:53:00,
2013-09-02 12:03:00,90.0,75.0,-100.00,WSW,245,2.0,8.0,62,0.00,,,0.00,573.000000,,2013-09-02 17:03:00,
2013-09-02 12:45:00,91.0,75.0,-100.00,NNW,336,3.0,8.0,59,0.00,,,0.00,672.000000,,2013-09-02 17:45:00,
2013-09-02 12:52:00,91.0,75.0,-100.00,NNW,336,3.0,8.0,59,0.00,,,0.00,672.000000,,2013-09-02 17:52:00,
2013-09-02 13:02:00,91.0,75.0,-100.00,NNW,336,3.0,8.0,59,0.00,,,0.00,672.000000,,2013-09-02 18:02:00,
2013-09-02 13:42:00,92.0,74.0,-100.00,NW,315,2.0,6.0,56,0.00,,,0.00,716.000000,,2013-09-02 18:42:00,
2013-09-02 13:52:00,92.0,74.0,-100.00,NW,315,2.0,6.0,56,0.00,,,0.00,716.000000,,2013-09-02 18:52:00,
2013-09-02 14:02:00,92.0,74.0,-100.00,NW,315,2.0,6.0,56,0.00,,,0.00,716.000000,,2013-09-02 19:02:00,
2013-09-02 14:42:00,94.0,72.0,-100.00,SW,227,2.0,8.0,50,0.00,,,0.00,661.000000,,2013-09-02 19:42:00,
2013-09-02 14:52:00,94.0,72.0,-100.00,SW,227,2.0,8.0,50,0.00,,,0.00,661.000000,,2013-09-02 19:52:00,
2013-09-02 15:02:00,94.0,72.0,-100.00,SW,227,2.0,8.0,50,0.00,,,0.00,661.000000,,2013-09-02 20:02:00,
2013-09-02 15:42:00,95.0,75.0,-100.00,SSW,200,2.0,8.0,52,0.00,,,0.00,654.000000,,2013-09-02 20:42:00,
2013-09-02 15:52:00,95.0,75.0,-100.00,SSW,200,2.0,8.0,52,0.00,,,0.00,654.000000,,2013-09-02 20:52:00,
2013-09-02 16:02:00,95.0,75.0,-100.00,SSW,200,2.0,8.0,52,0.00,,,0.00,654.000000,,2013-09-02 21:02:00,
2013-09-02 16:44:00,94.0,75.0,-100.00,SW,224,1.0,6.0,54,0.00,,,0.00,501.000000,,2013-09-02 21:44:00,
2013-09-02 17:44:00,88.0,75.0,-100.00,NW,320,2.0,7.0,66,0.00,,,0.00,308.000000,,2013-09-02 22:44:00,
2013-09-02 17:54:00,88.0,75.0,-100.00,NW,320,2.0,7.0,66,0.00,,,0.00,308.000000,,2013-09-02 22:54:00,
2013-09-02 18:03:00,88.0,75.0,-100.00,NW,320,2.0,7.0,66,0.00,,,0.00,308.000000,,2013-09-02 23:03:00,
2013-09-02 18:42:00,85.0,77.0,-100.00,SSW,213,0.0,4.0,76,0.00,,,0.00,100.000000,,2013-09-02 23:42:00,
2013-09-02 18:53:00,85.0,77.0,-100.00,SSW,213,0.0,4.0,76,0.00,,,0.00,100.000000,,2013-09-02 23:53:00,
2013-09-02 19:01:00,85.0,77.0,-100.00,SSW,213,0.0,4.0,76,0.00,,,0.00,100.000000,,2013-09-03 00:01:00,
2013-09-02 19:42:00,82.0,76.0,-100.00,ENE,59,1.0,2.0,83,0.00,,,0.00,35.000000,,2013-09-03 00:42:00,
2013-09-02 19:52:00,82.0,76.0,-100.00,ENE,59,1.0,2.0,83,0.00,,,0.00,35.000000,,2013-09-03 00:52:00,
2013-09-02 20:02:00,82.0,76.0,-100.00,ENE,59,1.0,2.0,83,0.00,,,0.00,35.000000,,2013-09-03 01:02:00,
2013-09-02 20:42:00,79.0,76.0,-100.00,NNE,32,0.0,3.0,90,0.00,,,0.00,3.000000,,2013-09-03 01:42:00,
2013-09-02 20:52:00,79.0,76.0,-100.00,NNE,32,0.0,3.0,90,0.00,,,0.00,3.000000,,2013-09-03 01:52:00,
2013-09-02 21:02:00,79.0,76.0,-100.00,NNE,32,0.0,3.0,90,0.00,,,0.00,3.000000,,2013-09-03 02:02:00,
2013-09-02 21:42:00,77.0,75.0,-100.00,SSW,192,0.0,0.0,94,0.00,,,0.00,0.000000,,2013-09-03 02:42:00,
2013-09-02 21:52:00,77.0,75.0,-100.00,SSW,192,0.0,0.0,94,0.00,,,0.00,0.000000,,2013-09-03 02:52:00,
2013-09-02 22:02:00,77.0,75.0,-100.00,SSW,192,0.0,0.0,94,0.00,,,0.00,0.000000,,2013-09-03 03:02:00,
2013-09-02 22:45:00,76.0,74.0,-100.00,SW,227,0.0,0.0,94,0.00,,,0.00,0.000000,,2013-09-03 03:45:00,
2013-09-02 22:55:00,76.0,74.0,-100.00,SW,227,0.0,0.0,94,0.00,,,0.00,0.000000,,2013-09-03 03:55:00,
2013-09-02 23:04:00,76.0,74.0,-100.00,SW,227,0.0,0.0,94,0.00,,,0.00,0.000000,,2013-09-03 04:04:00,
2013-09-02 23:44:00,75.0,74.0,-100.00,WSW,245,0.0,0.0,96,0.00,,,0.00,0.000000,,2013-09-03 04:44:00,
2013-09-02 23:53:00,75.0,74.0,-100.00,WSW,245,0.0,0.0,96,0.00,,,0.00,0.000000,,2013-09-03 04:53:00,